Storm Events Database

Event Details

Event Hail
Magnitude 1.00 in.
State ALABAMA
County/Area MORGAN
WFO HUN
Report Source Trained Spotter
NCDC Data Source CSV
Begin Date 2012-03-31 16:42:00.0 CST-6
Begin Location 1SW TRINITY
Begin Lat/Lon 34.61/-87.09
End Date 2012-03-31 16:45:00.0 CST-6
Deaths Direct/Indirect 0/0 (fatality details below, when available...)
Injuries Direct/Indirect 0/0
Property Damage 0.00K
Crop Damage 0.00K
Episode Narrative A very unstable environment along with an approaching weak surface trough dropping through Tennessee ignited several supercell thunderstorms during the mid afternoon through mid evening hours. A couple of the supercell storms tracked from southern and southwester middle Tennessee through northwest and north central Alabama, producing long swaths of large hail, in some cases very large hail up to tennis and softball sized. One of the storms produced a narrow swath of damaging winds across eastern Lawrence County, including the Speake community. The winds destroyed a barn and garage, and knocked several trees and power lines down in this area.
Event Narrative Quarter sized hail was reported.


     ‚Äč



All events for this episode:

Location County/Zone St. Date Time T.Z. Type Mag Dth Inj PrD CrD
Totals: 0 0 8.50K 0.00K
WREN LAWRENCE CO. AL 03/31/2012 05:30 CST-6 Hail 1.00 in. 0 0 0.00K 0.00K
LESTER LIMESTONE CO. AL 03/31/2012 15:15 CST-6 Hail 1.00 in. 0 0 0.00K 0.00K
MT ROZELL LIMESTONE CO. AL 03/31/2012 15:23 CST-6 Hail 1.75 in. 0 0 0.00K 0.00K
CARTWRIGHT LIMESTONE CO. AL 03/31/2012 15:39 CST-6 Hail 1.00 in. 0 0 0.00K 0.00K
WHEELER LAKE NORTH LIMESTONE CO. AL 03/31/2012 15:45 CST-6 Hail 0.88 in. 0 0 0.00K 0.00K
ATHENS LIMESTONE CO. AL 03/31/2012 15:48 CST-6 Hail 1.25 in. 0 0 0.00K 0.00K
WHEELER LAKE NORTH LIMESTONE CO. AL 03/31/2012 15:50 CST-6 Hail 1.75 in. 0 0 0.00K 0.00K
ANDERSON LAUDERDALE CO. AL 03/31/2012 15:51 CST-6 Hail 1.75 in. 0 0 0.00K 0.00K
ANDERSON LAUDERDALE CO. AL 03/31/2012 15:52 CST-6 Hail 1.00 in. 0 0 0.00K 0.00K
WHEELER LAKE NORTH LIMESTONE CO. AL 03/31/2012 15:52 CST-6 Hail 1.75 in. 0 0 0.00K 0.00K
WHITEHEAD LAUDERDALE CO. AL 03/31/2012 15:52 CST-6 Hail 1.00 in. 0 0 0.00K 0.00K
WHEELER LAKE NORTH LIMESTONE CO. AL 03/31/2012 15:53 CST-6 Hail 1.75 in. 0 0 0.00K 0.00K
ANDERSON LAUDERDALE CO. AL 03/31/2012 15:55 CST-6 Hail 1.00 in. 0 0 0.00K 0.00K
WHEELER LAKE NORTH LIMESTONE CO. AL 03/31/2012 15:55 CST-6 Hail 2.00 in. 0 0 0.00K 0.00K
ANDERSON LAUDERDALE CO. AL 03/31/2012 15:56 CST-6 Hail 1.00 in. 0 0 0.00K 0.00K
BLACKBURN LIMESTONE CO. AL 03/31/2012 15:57 CST-6 Hail 1.75 in. 0 0 0.00K 0.00K
ROGERSVILLE LAUDERDALE CO. AL 03/31/2012 15:57 CST-6 Hail 0.88 in. 0 0 0.00K 0.00K
ANDERSON LAUDERDALE CO. AL 03/31/2012 15:59 CST-6 Hail 1.00 in. 0 0 0.00K 0.00K
OLIVER LAUDERDALE CO. AL 03/31/2012 15:59 CST-6 Hail 1.00 in. 0 0 0.00K 0.00K
RIPLEY LIMESTONE CO. AL 03/31/2012 16:00 CST-6 Hail 1.25 in. 0 0 0.00K 0.00K
WHEELER LAKE NORTH LIMESTONE CO. AL 03/31/2012 16:00 CST-6 Hail 0.88 in. 0 0 0.00K 0.00K
ATHENS LIMESTONE CO. AL 03/31/2012 16:01 CST-6 Hail 0.88 in. 0 0 0.00K 0.00K
RIPLEY LIMESTONE CO. AL 03/31/2012 16:05 CST-6 Hail 2.50 in. 0 0 0.00K 0.00K
WHEELER LAKE NORTH LIMESTONE CO. AL 03/31/2012 16:07 CST-6 Hail 1.25 in. 0 0 0.00K 0.00K
ARAB MARSHALL CO. AL 03/31/2012 16:15 CST-6 Hail 1.00 in. 0 0 0.00K 0.00K
ARAB MARSHALL CO. AL 03/31/2012 16:28 CST-6 Hail 1.00 in. 0 0 0.00K 0.00K
LAWNGATE LIMESTONE CO. AL 03/31/2012 16:28 CST-6 Hail 1.00 in. 0 0 0.00K 0.00K
ELGIN LAUDERDALE CO. AL 03/31/2012 16:30 CST-6 Thunderstorm Wind 43 kts. EG 0 0 0.50K 0.00K
TRIMBLE CULLMAN CO. AL 03/31/2012 16:33 CST-6 Hail 1.75 in. 0 0 0.00K 0.00K
HYATT MARSHALL CO. AL 03/31/2012 16:35 CST-6 Thunderstorm Wind 61 kts. EG 0 0 2.00K 0.00K
BETHEL LIMESTONE CO. AL 03/31/2012 16:39 CST-6 Hail 1.25 in. 0 0 0.00K 0.00K
WHEELER LAKE NORTH LIMESTONE CO. AL 03/31/2012 16:39 CST-6 Hail 1.00 in. 0 0 0.00K 0.00K
CADDO LAWRENCE CO. AL 03/31/2012 16:40 CST-6 Thunderstorm Wind 78 kts. ES 0 0 0.00K 0.00K
TRINITY MORGAN CO. AL 03/31/2012 16:42 CST-6 Hail 1.00 in. 0 0 0.00K 0.00K
CADDO LAWRENCE CO. AL 03/31/2012 16:43 CST-6 Hail 0.88 in. 0 0 0.00K 0.00K
THREET LAUDERDALE CO. AL 03/31/2012 16:54 CST-6 Hail 1.00 in. 0 0 0.00K 0.00K
CLOVERDALE LAUDERDALE CO. AL 03/31/2012 16:57 CST-6 Hail 0.88 in. 0 0 0.00K 0.00K
HILLSBORO LAWRENCE CO. AL 03/31/2012 16:57 CST-6 Thunderstorm Wind 52 kts. EG 0 0 1.00K 0.00K
THREET LAUDERDALE CO. AL 03/31/2012 16:59 CST-6 Thunderstorm Wind 52 kts. EG 0 0 5.00K 0.00K
BASHAM MORGAN CO. AL 03/31/2012 17:03 CST-6 Hail 1.00 in. 0 0 0.00K 0.00K
PETERSVILLE LAUDERDALE CO. AL 03/31/2012 17:04 CST-6 Hail 1.75 in. 0 0 0.00K 0.00K
POOL LAWRENCE CO. AL 03/31/2012 17:04 CST-6 Hail 1.00 in. 0 0 0.00K 0.00K
MASSEY MORGAN CO. AL 03/31/2012 17:16 CST-6 Hail 1.00 in. 0 0 0.00K 0.00K
MOULTON LAWRENCE CO. AL 03/31/2012 17:25 CST-6 Hail 1.75 in. 0 0 0.00K 0.00K
NEEL MORGAN CO. AL 03/31/2012 17:25 CST-6 Hail 0.88 in. 0 0 0.00K 0.00K
MOULTON LAWRENCE CO. AL 03/31/2012 17:27 CST-6 Hail 1.25 in. 0 0 0.00K 0.00K
MOULTON LAWRENCE CO. AL 03/31/2012 17:31 CST-6 Hail 1.75 in. 0 0 0.00K 0.00K
MOULTON LAWRENCE CO. AL 03/31/2012 17:32 CST-6 Hail 1.75 in. 0 0 0.00K 0.00K
ARDMORE ARPT LIMESTONE CO. AL 03/31/2012 17:45 CST-6 Hail 1.00 in. 0 0 0.00K 0.00K
ELKMONT LIMESTONE CO. AL 03/31/2012 17:49 CST-6 Hail 1.75 in. 0 0 0.00K 0.00K
THACH LIMESTONE CO. AL 03/31/2012 17:52 CST-6 Hail 1.00 in. 0 0 0.00K 0.00K
TRIMBLE CULLMAN CO. AL 03/31/2012 17:54 CST-6 Hail 2.50 in. 0 0 0.00K 0.00K
CLOVERDALE LAUDERDALE CO. AL 03/31/2012 18:04 CST-6 Hail 1.75 in. 0 0 0.00K 0.00K
RED BAY MUNI ARPT FRANKLIN CO. AL 03/31/2012 19:44 CST-6 Hail 0.88 in. 0 0 0.00K 0.00K
VINA FRANKLIN CO. AL 03/31/2012 19:44 CST-6 Hail 0.88 in. 0 0 0.00K 0.00K
RED BAY MUNI ARPT FRANKLIN CO. AL 03/31/2012 20:30 CST-6 Hail 1.00 in. 0 0 0.00K 0.00K
RED BAY MUNI ARPT FRANKLIN CO. AL 03/31/2012 20:44 CST-6 Hail 0.88 in. 0 0 0.00K 0.00K
Totals: 0 0 8.50K 0.00K